Time;durP1;ratioP1;P1;durP2;ratioP2;P2;SDS_P1;SDS_P2;PMS_P1;PMS_P2;Temp;Humidity;BMP_temperature;BMP_pressure;BME280_temperature;BME280_humidity;BME280_pressure;Samples;Min_cycle;Max_cycle;Signal;HPM_P1;HPM_P2
2021/11/28 00:01:54;;;;;;;7.03;6.43;;;5.30;99.90;;;;;;10500246;28;20708;-78
2021/11/28 00:07:00;;;;;;;11.80;6.93;;;5.30;99.90;;;;;;10469100;28;20217;-78
2021/11/28 00:12:12;;;;;;;6.30;5.70;;;5.30;99.90;;;;;;10459836;28;20232;-79
2021/11/28 00:17:14;;;;;;;4.47;4.07;;;5.40;99.90;;;;;;10485017;28;20216;-80
2021/11/28 00:22:17;;;;;;;3.70;3.50;;;5.30;99.90;;;;;;10492730;28;20220;-79
2021/11/28 00:27:20;;;;;;;4.20;3.20;;;5.30;99.90;;;;;;10445772;28;20687;-80
2021/11/28 00:32:22;;;;;;;4.03;3.30;;;5.30;99.90;;;;;;10438460;28;20222;-79
2021/11/28 00:37:26;;;;;;;4.17;3.80;;;5.30;99.90;;;;;;10426463;28;20208;-80
2021/11/28 00:42:29;;;;;;;3.77;3.43;;;5.30;99.90;;;;;;10457182;28;20244;-78
2021/11/28 00:47:32;;;;;;;3.73;3.43;;;5.30;99.90;;;;;;10477426;28;20576;-79
2021/11/28 00:52:37;;;;;;;4.30;3.70;;;5.40;99.90;;;;;;10500036;28;20228;-78
2021/11/28 00:57:46;;;;;;;3.40;3.20;;;5.40;99.90;;;;;;10499913;28;20254;-79
2021/11/28 01:02:49;;;;;;;3.40;3.17;;;5.30;99.90;;;;;;10486207;28;20240;-78
2021/11/28 01:07:51;;;;;;;3.60;3.30;;;5.20;99.90;;;;;;10452084;28;20204;-79
2021/11/28 01:12:55;;;;;;;3.30;3.00;;;5.20;99.90;;;;;;10472721;28;20230;-77
2021/11/28 01:17:58;;;;;;;3.93;3.00;;;5.20;99.90;;;;;;10462877;28;20209;-79
2021/11/28 01:23:00;;;;;;;3.00;2.80;;;5.30;99.90;;;;;;10473710;28;20298;-78
2021/11/28 01:28:04;;;;;;;6.83;3.70;;;5.30;99.90;;;;;;10479778;28;20232;-78
2021/11/28 01:33:06;;;;;;;3.63;2.87;;;5.40;99.90;;;;;;10488716;28;20225;-79
2021/11/28 01:38:09;;;;;;;4.20;3.50;;;5.40;99.90;;;;;;10487641;28;20207;-79
2021/11/28 01:43:14;;;;;;;5.03;3.50;;;5.50;99.90;;;;;;10469542;28;20228;-79
2021/11/28 01:48:18;;;;;;;4.03;3.50;;;5.60;99.90;;;;;;10486966;28;20582;-79
2021/11/28 01:53:25;;;;;;;4.33;2.90;;;5.60;99.90;;;;;;10470913;28;20260;-79
2021/11/28 01:58:29;;;;;;;3.70;3.40;;;5.60;99.90;;;;;;10487482;28;20204;-79
2021/11/28 02:03:36;;;;;;;5.77;5.30;;;5.70;99.90;;;;;;10483480;28;20248;-79
2021/11/28 02:08:39;;;;;;;5.00;4.57;;;5.70;99.90;;;;;;10457496;28;20239;-79
2021/11/28 02:13:44;;;;;;;4.30;3.60;;;5.80;99.90;;;;;;10476582;28;20301;-79
2021/11/28 02:18:47;;;;;;;4.83;3.87;;;5.70;99.90;;;;;;10501176;28;20232;-79
2021/11/28 02:23:50;;;;;;;3.60;3.30;;;5.70;99.90;;;;;;10486799;28;20632;-79
2021/11/28 02:28:52;;;;;;;3.40;3.20;;;5.70;99.90;;;;;;10473612;28;20205;-79
2021/11/28 02:33:56;;;;;;;4.33;3.57;;;5.70;99.90;;;;;;10505480;23;20340;-79
2021/11/28 02:38:59;;;;;;;3.40;3.20;;;5.60;99.90;;;;;;10517163;28;20287;-78
2021/11/28 02:44:02;;;;;;;4.50;3.60;;;5.60;99.90;;;;;;10498375;28;20342;-77
2021/11/28 02:49:05;;;;;;;4.00;3.30;;;5.70;99.90;;;;;;10517714;28;20196;-78
2021/11/28 02:54:08;;;;;;;3.67;3.37;;;5.70;99.90;;;;;;10503059;28;20714;-78
2021/11/28 02:59:11;;;;;;;3.83;3.30;;;5.60;99.90;;;;;;10516919;28;20204;-78
2021/11/28 03:04:14;;;;;;;5.80;3.90;;;5.60;99.90;;;;;;10483578;28;20646;-78
2021/11/28 03:09:18;;;;;;;4.03;3.33;;;5.70;99.90;;;;;;10501872;28;20218;-79
2021/11/28 03:14:20;;;;;;;4.40;3.40;;;5.70;99.90;;;;;;10518870;28;20232;-77
2021/11/28 03:19:23;;;;;;;5.27;3.50;;;5.80;99.90;;;;;;10513316;28;20268;-78
2021/11/28 03:24:26;;;;;;;3.87;3.30;;;5.70;99.90;;;;;;10498824;28;20232;-78
2021/11/28 03:29:28;;;;;;;3.60;3.30;;;5.80;99.90;;;;;;10499769;28;20205;-78
2021/11/28 03:34:42;;;;;;;3.37;3.17;;;5.80;99.90;;;;;;10543035;28;20235;-78
2021/11/28 03:40:01;;;;;;;4.27;3.80;;;5.80;99.90;;;;;;10493634;28;20268;-78
2021/11/28 03:45:10;;;;;;;4.40;3.23;;;5.70;99.90;;;;;;10507126;28;20223;-78
2021/11/28 03:50:15;;;;;;;4.17;3.77;;;5.70;99.90;;;;;;10507413;28;20220;-78
2021/11/28 03:55:26;;;;;;;3.60;3.30;;;5.70;99.90;;;;;;10509539;28;20240;-78
2021/11/28 04:00:28;;;;;;;3.80;3.50;;;5.70;99.90;;;;;;10546726;28;20705;-79
2021/11/28 04:05:37;;;;;;;3.73;3.30;;;5.70;99.90;;;;;;10531931;28;20227;-78
2021/11/28 04:10:41;;;;;;;3.40;3.10;;;5.80;99.90;;;;;;10506755;28;20282;-78
2021/11/28 04:15:44;;;;;;;3.53;3.23;;;5.70;99.90;;;;;;10483771;28;20236;-77
2021/11/28 04:20:51;;;;;;;2.83;2.63;;;5.70;99.90;;;;;;10490214;28;20209;-77
2021/11/28 04:25:55;;;;;;;3.60;2.80;;;5.70;99.90;;;;;;10490531;28;20272;-78
2021/11/28 04:31:01;;;;;;;3.07;2.87;;;5.80;99.90;;;;;;10520151;28;20291;-78
2021/11/28 04:36:03;;;;;;;3.17;2.87;;;5.80;99.90;;;;;;10521213;28;20236;-78
2021/11/28 04:41:07;;;;;;;3.43;3.23;;;5.80;99.90;;;;;;10520824;28;20614;-78
2021/11/28 04:46:18;;;;;;;3.00;2.80;;;5.70;99.90;;;;;;10520512;28;20200;-78
2021/11/28 04:51:20;;;;;;;3.10;2.80;;;5.70;99.90;;;;;;10502176;28;20633;-78
2021/11/28 04:56:24;;;;;;;4.00;3.70;;;5.70;99.90;;;;;;10502812;28;20238;-78
2021/11/28 05:01:27;;;;;;;5.43;3.90;;;5.60;99.90;;;;;;10508043;28;20303;-78
2021/11/28 05:06:42;;;;;;;3.83;3.53;;;5.50;99.90;;;;;;10528913;28;20199;-77
2021/11/28 05:11:52;;;;;;;4.20;3.60;;;5.40;99.90;;;;;;10513579;28;20254;-78
2021/11/28 05:16:54;;;;;;;3.73;3.43;;;5.40;99.90;;;;;;10505074;28;20323;-78
2021/11/28 05:22:08;;;;;;;4.40;3.63;;;5.40;99.90;;;;;;10510256;28;20231;-78
2021/11/28 05:27:16;;;;;;;8.20;3.93;;;5.40;99.90;;;;;;10518648;28;20196;-78
2021/11/28 05:32:18;;;;;;;3.57;3.20;;;5.40;99.90;;;;;;10525613;28;20262;-79
2021/11/28 05:37:39;;;;;;;3.40;3.20;;;5.40;99.90;;;;;;10542813;28;20238;-78
2021/11/28 05:42:50;;;;;;;4.70;3.50;;;5.40;99.90;;;;;;10514210;28;20315;-78
2021/11/28 05:47:53;;;;;;;3.63;3.33;;;5.50;99.90;;;;;;10512245;28;20238;-78
2021/11/28 05:53:02;;;;;;;4.00;3.60;;;5.50;99.90;;;;;;10525611;28;20228;-78
2021/11/28 05:58:07;;;;;;;3.33;3.03;;;5.50;99.90;;;;;;10519062;28;20203;-78
2021/11/28 06:03:10;;;;;;;3.60;3.30;;;5.50;99.90;;;;;;10526268;28;20251;-78
2021/11/28 06:08:12;;;;;;;3.90;2.83;;;5.50;99.90;;;;;;10544487;28;20235;-78
2021/11/28 06:13:16;;;;;;;3.17;2.97;;;5.50;99.90;;;;;;10496156;28;20757;-78
2021/11/28 06:18:36;;;;;;;2.83;2.60;;;5.50;99.90;;;;;;10509215;28;20196;-78
2021/11/28 06:24:07;;;;;;;3.07;2.57;;;5.50;99.90;;;;;;10523844;28;20224;-78
2021/11/28 06:29:10;;;;;;;3.57;2.90;;;5.50;99.90;;;;;;10517750;28;20615;-78
2021/11/28 06:34:14;;;;;;;2.80;2.60;;;5.50;99.90;;;;;;10523074;28;20262;-77
2021/11/28 06:39:36;;;;;;;2.93;2.73;;;5.60;99.90;;;;;;10517869;28;20207;-78
2021/11/28 06:45:01;;;;;;;3.00;2.77;;;5.50;99.90;;;;;;10519496;28;20215;-78
2021/11/28 06:50:05;;;;;;;3.07;2.87;;;5.50;99.90;;;;;;10519340;28;20273;-77
2021/11/28 06:55:36;;;;;;;2.80;2.60;;;5.60;99.90;;;;;;10519415;28;20238;-78
2021/11/28 07:00:52;;;;;;;2.90;2.70;;;5.60;99.90;;;;;;10512117;28;20199;-77
2021/11/28 07:05:54;;;;;;;3.40;3.10;;;5.50;99.90;;;;;;10501964;28;20667;-78
2021/11/28 07:10:58;;;;;;;2.47;2.37;;;5.50;99.90;;;;;;10501925;28;20588;-78
2021/11/28 07:16:02;;;;;;;5.70;3.80;;;5.50;99.90;;;;;;10477890;28;20735;-79
2021/11/28 07:21:11;;;;;;;3.60;3.20;;;5.50;99.90;;;;;;10502560;28;20232;-79
2021/11/28 07:26:18;;;;;;;3.97;2.73;;;5.50;99.90;;;;;;10506439;28;20209;-79
2021/11/28 07:31:24;;;;;;;4.20;3.80;;;5.50;99.90;;;;;;10521366;28;20223;-79
2021/11/28 07:36:58;;;;;;;4.10;3.50;;;5.50;99.90;;;;;;10518499;28;20258;-80
2021/11/28 07:42:03;;;;;;;3.70;3.27;;;5.60;99.90;;;;;;10525627;28;20247;-80
2021/11/28 07:47:29;;;;;;;5.17;3.20;;;5.60;99.90;;;;;;10525714;28;20207;-81
2021/11/28 07:52:57;;;;;;;3.53;3.17;;;5.60;99.90;;;;;;10535747;28;20264;-79
2021/11/28 07:58:04;;;;;;;3.60;3.40;;;5.70;99.90;;;;;;10523210;28;20273;-80
2021/11/28 08:03:11;;;;;;;4.10;3.80;;;5.80;99.90;;;;;;10541546;28;20247;-79
2021/11/28 08:08:33;;;;;;;4.03;3.63;;;5.80;99.90;;;;;;10525402;28;20700;-80
2021/11/28 08:13:49;;;;;;;3.33;3.07;;;5.90;99.90;;;;;;10523862;28;20671;-80
2021/11/28 08:18:53;;;;;;;4.17;3.60;;;5.90;99.90;;;;;;10522059;28;20207;-77
2021/11/28 08:24:01;;;;;;;3.97;3.67;;;6.00;99.90;;;;;;10512885;28;20223;-80
2021/11/28 08:29:05;;;;;;;3.77;3.47;;;6.00;99.90;;;;;;10489218;28;20208;-80
2021/11/28 08:34:12;;;;;;;3.97;3.53;;;6.00;99.90;;;;;;10505528;22;20324;-83
2021/11/28 08:39:27;;;;;;;4.93;3.50;;;6.10;99.90;;;;;;10498020;28;20200;-82
2021/11/28 08:44:29;;;;;;;4.00;3.70;;;6.10;99.90;;;;;;10498149;28;20231;-82
2021/11/28 08:49:33;;;;;;;6.57;4.40;;;6.20;99.90;;;;;;10500372;28;20291;-82
2021/11/28 08:54:35;;;;;;;5.00;4.57;;;6.20;99.90;;;;;;10466089;28;20243;-83
2021/11/28 08:59:39;;;;;;;5.83;4.10;;;6.30;99.90;;;;;;10500277;28;20216;-83
2021/11/28 09:04:42;;;;;;;6.13;3.53;;;6.40;99.90;;;;;;10452461;28;20229;-83
2021/11/28 09:09:48;;;;;;;3.87;3.57;;;6.40;99.90;;;;;;10485017;28;20205;-82
2021/11/28 09:14:50;;;;;;;4.00;3.63;;;6.50;99.90;;;;;;10489344;28;20228;-82
2021/11/28 09:19:57;;;;;;;3.90;3.60;;;6.50;99.90;;;;;;10491332;28;20215;-82
2021/11/28 09:25:00;;;;;;;4.57;4.20;;;6.60;99.90;;;;;;10504532;28;21022;-82
2021/11/28 09:30:02;;;;;;;4.73;4.33;;;6.60;99.90;;;;;;10470755;28;20296;-82
2021/11/28 09:35:12;;;;;;;4.20;3.80;;;6.60;99.90;;;;;;10482941;28;20236;-83
2021/11/28 09:40:15;;;;;;;4.00;3.70;;;6.60;99.90;;;;;;10487296;28;20205;-82
2021/11/28 09:45:17;;;;;;;4.20;3.80;;;6.70;99.90;;;;;;10461917;28;20221;-81
2021/11/28 09:50:24;;;;;;;4.60;4.27;;;6.80;99.90;;;;;;10429309;28;20262;-82
2021/11/28 09:55:27;;;;;;;4.80;4.10;;;6.80;99.90;;;;;;10447784;28;20308;-84
2021/11/28 10:00:31;;;;;;;3.83;3.50;;;7.00;99.90;;;;;;10475946;28;20308;-83
2021/11/28 10:05:35;;;;;;;6.47;3.97;;;7.00;99.90;;;;;;10466045;28;20221;-81
2021/11/28 10:10:41;;;;;;;4.20;3.90;;;7.10;99.90;;;;;;10432062;28;20298;-83
2021/11/28 10:15:45;;;;;;;3.77;3.47;;;7.10;99.90;;;;;;10447822;28;20415;-82
2021/11/28 10:20:55;;;;;;;4.63;4.07;;;7.10;99.90;;;;;;10467168;28;20212;-84
2021/11/28 10:26:13;;;;;;;4.93;4.57;;;7.10;99.90;;;;;;10466460;28;20244;-81
2021/11/28 10:31:23;;;;;;;4.13;3.83;;;7.10;99.90;;;;;;10474449;28;20197;-82
2021/11/28 10:36:30;;;;;;;4.33;4.03;;;7.00;99.90;;;;;;10447302;28;20238;-82
2021/11/28 10:41:32;;;;;;;4.90;3.73;;;7.00;99.90;;;;;;10463039;28;20308;-85
2021/11/28 10:46:34;;;;;;;4.00;3.60;;;7.10;99.90;;;;;;10488641;28;20195;-85
2021/11/28 10:51:40;;;;;;;4.03;3.50;;;7.20;99.90;;;;;;10463694;28;20288;-85
2021/11/28 10:56:45;;;;;;;5.03;4.60;;;7.20;99.90;;;;;;10447072;28;20680;-85
2021/11/28 11:01:47;;;;;;;4.00;3.60;;;7.30;99.90;;;;;;10452866;28;20290;-85
2021/11/28 11:07:07;;;;;;;4.70;3.43;;;7.40;99.90;;;;;;10444867;28;20695;-85
2021/11/28 11:12:22;;;;;;;3.70;3.40;;;7.50;99.90;;;;;;10477618;28;20319;-85
2021/11/28 11:17:27;;;;;;;3.57;3.37;;;7.50;99.90;;;;;;10480607;28;20228;-85
2021/11/28 11:22:35;;;;;;;4.40;3.60;;;7.50;99.90;;;;;;10474571;28;20268;-84
2021/11/28 11:27:39;;;;;;;4.90;2.90;;;7.40;99.90;;;;;;10445433;28;20212;-83
2021/11/28 11:32:46;;;;;;;2.83;2.63;;;7.40;99.90;;;;;;10484162;28;20249;-84
2021/11/28 11:43:22;;;;;;;4.03;3.63;;;7.30;99.90;;;;;;10463460;28;20217;-83
2021/11/28 11:48:25;;;;;;;3.40;3.10;;;7.40;99.90;;;;;;10459267;28;20233;-83
2021/11/28 11:53:28;;;;;;;4.03;3.70;;;7.40;99.90;;;;;;10459862;28;20689;-82
2021/11/28 11:58:40;;;;;;;3.67;3.37;;;7.40;99.90;;;;;;10463085;28;20250;-85
2021/11/28 12:03:48;;;;;;;3.50;3.30;;;7.60;99.90;;;;;;10468300;28;20228;-83
2021/11/28 12:08:55;;;;;;;7.07;6.37;;;7.60;99.90;;;;;;10444858;28;20220;-82
2021/11/28 12:14:05;;;;;;;6.70;6.20;;;7.70;99.90;;;;;;10455893;28;20583;-85
2021/11/28 12:19:10;;;;;;;8.20;7.37;;;7.70;99.90;;;;;;10454627;28;20220;-85
2021/11/28 12:24:22;;;;;;;5.80;5.23;;;7.70;99.90;;;;;;10468269;28;20221;-81
2021/11/28 12:29:28;;;;;;;7.87;7.07;;;7.70;99.90;;;;;;10456123;28;20197;-84
2021/11/28 12:34:44;;;;;;;8.60;7.80;;;7.60;99.90;;;;;;10462056;28;20572;-83
2021/11/28 12:39:49;;;;;;;9.40;6.53;;;7.70;99.90;;;;;;10459307;28;20205;-84
2021/11/28 12:45:02;;;;;;;6.77;6.07;;;7.50;99.90;;;;;;10466666;28;20297;-85
2021/11/28 12:50:15;;;;;;;8.03;7.23;;;7.40;99.90;;;;;;10479291;28;20201;-84
2021/11/28 12:55:24;;;;;;;6.57;5.97;;;7.40;99.90;;;;;;10479825;28;20228;-83
2021/11/28 13:00:30;;;;;;;5.63;5.23;;;7.30;99.90;;;;;;10485007;28;20211;-84
2021/11/28 13:05:39;;;;;;;7.93;6.40;;;7.30;99.90;;;;;;10484018;28;20227;-83
2021/11/28 13:10:44;;;;;;;6.20;5.70;;;7.20;99.90;;;;;;10498475;28;20292;-83
2021/11/28 13:15:48;;;;;;;6.93;6.33;;;7.20;99.90;;;;;;10484643;28;20224;-82
2021/11/28 13:20:56;;;;;;;7.17;6.57;;;7.30;99.90;;;;;;10497908;28;20589;-82
2021/11/28 13:26:20;;;;;;;7.70;7.00;;;7.20;99.90;;;;;;10457893;28;20585;-83
2021/11/28 13:31:35;;;;;;;7.73;7.03;;;7.10;99.90;;;;;;10467171;28;20252;-82
2021/11/28 13:36:43;;;;;;;8.00;7.30;;;7.10;99.90;;;;;;10495795;28;20590;-82
2021/11/28 13:41:50;;;;;;;7.63;7.03;;;7.10;99.90;;;;;;10502904;28;20603;-83
2021/11/28 13:46:54;;;;;;;9.33;8.07;;;7.10;99.90;;;;;;10481167;28;20197;-82
2021/11/28 13:51:58;;;;;;;8.03;7.33;;;7.10;99.90;;;;;;10484906;28;20303;-83
2021/11/28 13:57:03;;;;;;;9.50;8.60;;;7.10;99.90;;;;;;10478179;28;20228;-82
2021/11/28 14:02:17;;;;;;;8.47;7.67;;;7.10;99.90;;;;;;10497337;28;20633;-82
2021/11/28 14:07:21;;;;;;;8.70;7.80;;;7.20;99.90;;;;;;10461460;28;20626;-83
2021/11/28 14:12:28;;;;;;;9.53;7.83;;;7.20;99.90;;;;;;10501395;28;20661;-83
2021/11/28 14:17:31;;;;;;;8.30;7.57;;;7.20;99.90;;;;;;10484654;28;20220;-82
2021/11/28 14:22:36;;;;;;;8.80;8.10;;;7.20;99.90;;;;;;10491632;28;20241;-83
2021/11/28 14:27:39;;;;;;;8.53;7.83;;;7.20;99.90;;;;;;10489336;28;20201;-82
2021/11/28 14:32:41;;;;;;;9.07;8.37;;;7.20;99.90;;;;;;10524289;22;20315;-79
2021/11/28 14:37:43;;;;;;;9.73;8.93;;;7.20;99.90;;;;;;10536745;28;20230;-79
2021/11/28 14:42:48;;;;;;;10.40;9.50;;;7.20;99.90;;;;;;10529705;28;20710;-79
2021/11/28 14:47:50;;;;;;;9.53;8.83;;;7.20;99.90;;;;;;10502102;28;20203;-80
2021/11/28 14:52:54;;;;;;;9.77;8.87;;;7.20;99.90;;;;;;10526030;28;20318;-80
2021/11/28 14:57:58;;;;;;;9.47;8.67;;;7.10;99.90;;;;;;10508712;28;20234;-80
2021/11/28 15:03:15;;;;;;;9.30;8.50;;;7.00;99.90;;;;;;10519085;28;20270;-80
2021/11/28 15:08:18;;;;;;;10.57;8.07;;;7.00;99.90;;;;;;10503573;28;20200;-80
2021/11/28 15:13:31;;;;;;;8.33;7.40;;;7.00;99.90;;;;;;10535930;28;20595;-80
2021/11/28 15:18:34;;;;;;;9.23;8.30;;;7.00;99.90;;;;;;10542764;28;20262;-81
2021/11/28 15:23:36;;;;;;;11.73;9.57;;;6.90;99.90;;;;;;10504570;28;20327;-81
2021/11/28 15:28:39;;;;;;;8.73;8.00;;;6.80;99.90;;;;;;10500462;28;20679;-80
2021/11/28 15:33:41;;;;;;;10.20;9.10;;;6.80;99.90;;;;;;10539661;28;20314;-80
2021/11/28 15:38:43;;;;;;;8.93;8.13;;;6.80;99.90;;;;;;10505206;28;20259;-80
2021/11/28 15:43:47;;;;;;;11.50;10.27;;;6.80;99.90;;;;;;10523942;28;20283;-81
2021/11/28 15:48:49;;;;;;;9.43;8.50;;;6.70;99.90;;;;;;10526207;28;20204;-80
2021/11/28 15:53:51;;;;;;;9.90;9.10;;;6.70;99.90;;;;;;10521073;28;20318;-80
2021/11/28 15:58:55;;;;;;;8.77;8.07;;;6.70;99.90;;;;;;10539608;28;20278;-80
2021/11/28 16:03:57;;;;;;;8.93;8.20;;;6.70;99.90;;;;;;10483188;28;20275;-80
2021/11/28 16:08:59;;;;;;;9.50;8.60;;;6.60;99.90;;;;;;10486108;28;20228;-78
2021/11/28 16:14:02;;;;;;;8.90;8.20;;;6.60;99.90;;;;;;10499134;28;20308;-80
2021/11/28 16:19:05;;;;;;;8.80;8.10;;;6.50;99.90;;;;;;10533861;28;20224;-79
2021/11/28 16:24:08;;;;;;;9.67;8.80;;;6.50;99.90;;;;;;10513146;28;20223;-78
2021/11/28 16:29:11;;;;;;;10.30;8.83;;;6.50;99.90;;;;;;10530594;28;20200;-79
2021/11/28 16:34:16;;;;;;;9.13;8.27;;;6.50;99.90;;;;;;10511765;28;20783;-80
2021/11/28 16:39:18;;;;;;;9.73;8.80;;;6.50;99.90;;;;;;10535556;28;20228;-79
2021/11/28 16:44:22;;;;;;;10.03;9.23;;;6.50;99.90;;;;;;10522687;28;20232;-79
2021/11/28 16:49:24;;;;;;;8.97;8.10;;;6.40;99.90;;;;;;10522155;28;20244;-81
2021/11/28 16:54:26;;;;;;;9.50;8.70;;;6.40;99.90;;;;;;10515295;28;20228;-79
2021/11/28 16:59:30;;;;;;;12.80;11.70;;;6.50;99.90;;;;;;10511090;28;20237;-79
2021/11/28 17:04:32;;;;;;;8.43;7.70;;;6.40;99.90;;;;;;10526014;28;20254;-78
2021/11/28 17:09:34;;;;;;;10.07;8.73;;;6.50;99.90;;;;;;10529712;28;20196;-79
2021/11/28 17:14:40;;;;;;;12.20;11.10;;;6.50;99.90;;;;;;10530607;28;20579;-80
2021/11/28 17:19:42;;;;;;;11.10;9.77;;;6.40;99.90;;;;;;10546222;28;20243;-81
2021/11/28 17:24:46;;;;;;;12.30;10.03;;;6.40;99.90;;;;;;10525179;28;20731;-77
2021/11/28 17:29:50;;;;;;;11.80;10.23;;;6.30;99.90;;;;;;10516165;28;20207;-78
2021/11/28 17:34:52;;;;;;;24.07;17.33;;;6.30;99.90;;;;;;10533645;28;20340;-77
2021/11/28 17:39:54;;;;;;;12.50;10.20;;;6.20;99.90;;;;;;10522557;28;20595;-78
2021/11/28 17:44:57;;;;;;;15.57;14.27;;;6.20;99.90;;;;;;10539242;28;20243;-78
2021/11/28 17:49:59;;;;;;;12.13;11.10;;;6.20;99.90;;;;;;10521113;28;20253;-77
2021/11/28 17:55:02;;;;;;;13.23;12.03;;;6.20;99.90;;;;;;10520471;28;20303;-78
2021/11/28 18:00:08;;;;;;;10.20;9.30;;;6.20;99.90;;;;;;10514753;28;20695;-78
2021/11/28 18:05:11;;;;;;;12.87;11.67;;;6.20;99.90;;;;;;10488492;28;20220;-78
2021/11/28 18:10:14;;;;;;;15.70;14.10;;;6.10;99.90;;;;;;10477197;28;20211;-78
2021/11/28 18:15:18;;;;;;;11.00;10.10;;;6.10;99.90;;;;;;10532165;28;20223;-78
2021/11/28 18:20:22;;;;;;;10.43;9.43;;;6.10;99.90;;;;;;10480915;28;20224;-78
2021/11/28 18:25:24;;;;;;;10.00;9.03;;;6.10;99.90;;;;;;10499357;28;20228;-79
2021/11/28 18:30:31;;;;;;;8.67;7.87;;;6.10;99.90;;;;;;10499507;28;20199;-79
2021/11/28 18:35:39;;;;;;;11.40;9.23;;;6.10;99.90;;;;;;10521244;28;20228;-79
2021/11/28 18:40:42;;;;;;;11.33;10.27;;;6.20;99.90;;;;;;10530899;28;20204;-78
2021/11/28 18:45:59;;;;;;;13.73;12.53;;;6.10;99.90;;;;;;10516814;28;20223;-79
2021/11/28 18:51:12;;;;;;;12.63;11.47;;;6.00;99.90;;;;;;10513104;28;20212;-79
2021/11/28 18:56:24;;;;;;;13.00;11.67;;;5.90;99.90;;;;;;10512216;28;20640;-79
2021/11/28 19:01:28;;;;;;;13.80;12.53;;;5.80;99.90;;;;;;10499505;28;20204;-80
2021/11/28 19:06:31;;;;;;;14.70;13.40;;;5.70;99.90;;;;;;10480151;28;20631;-80
2021/11/28 19:11:33;;;;;;;12.47;11.47;;;5.60;99.90;;;;;;10519309;28;20224;-79
2021/11/28 19:16:37;;;;;;;13.50;12.40;;;5.50;99.90;;;;;;10530836;28;20239;-80
2021/11/28 19:21:39;;;;;;;14.13;12.87;;;5.40;99.90;;;;;;10529899;28;20216;-80
2021/11/28 19:26:42;;;;;;;14.07;12.87;;;5.30;99.90;;;;;;10533867;28;20702;-80
2021/11/28 19:31:45;;;;;;;12.97;11.87;;;5.20;99.90;;;;;;10511734;28;20239;-80
2021/11/28 19:36:49;;;;;;;13.10;12.10;;;5.20;99.90;;;;;;10520257;28;20239;-80
2021/11/28 19:41:52;;;;;;;15.63;14.23;;;5.10;99.90;;;;;;10492608;28;20244;-80
2021/11/28 19:46:55;;;;;;;14.43;13.23;;;5.00;99.90;;;;;;10522438;28;20200;-80
2021/11/28 19:51:57;;;;;;;14.13;12.93;;;4.90;99.90;;;;;;10504161;28;20232;-80
2021/11/28 19:57:01;;;;;;;14.83;13.63;;;4.90;99.90;;;;;;10517545;28;20600;-80
2021/11/28 20:02:05;;;;;;;13.00;11.93;;;4.80;99.90;;;;;;10482314;28;20647;-80
2021/11/28 20:07:07;;;;;;;14.53;13.37;;;4.80;99.90;;;;;;10519628;28;20192;-78
2021/11/28 20:12:09;;;;;;;13.17;12.17;;;4.90;99.90;;;;;;10518367;28;20234;-78
2021/11/28 20:17:13;;;;;;;13.60;12.33;;;4.90;99.90;;;;;;10538936;28;20243;-78
2021/11/28 20:22:15;;;;;;;14.37;13.17;;;5.00;99.90;;;;;;10482531;28;20224;-80
2021/11/28 20:27:18;;;;;;;15.07;13.77;;;5.00;99.90;;;;;;10509502;28;20265;-79
2021/11/28 20:32:21;;;;;;;16.00;14.70;;;5.00;99.90;;;;;;10526620;22;20227;-80
2021/11/28 20:37:24;;;;;;;17.37;15.87;;;5.10;99.90;;;;;;10537129;28;20219;-78
2021/11/28 20:42:26;;;;;;;17.47;16.07;;;5.10;99.90;;;;;;10531424;28;20240;-79
2021/11/28 20:47:30;;;;;;;17.73;16.23;;;5.10;99.90;;;;;;10534830;28;20659;-80
2021/11/28 20:52:32;;;;;;;19.10;17.40;;;5.10;99.90;;;;;;10520387;28;20231;-80
2021/11/28 20:57:34;;;;;;;19.47;17.70;;;5.20;99.90;;;;;;10500105;28;20292;-79
2021/11/28 21:02:38;;;;;;;17.70;16.20;;;5.20;99.90;;;;;;10513289;28;20223;-79
2021/11/28 21:07:40;;;;;;;17.00;15.60;;;5.20;99.90;;;;;;10512359;28;20200;-80
2021/11/28 21:12:43;;;;;;;15.83;14.57;;;5.20;99.90;;;;;;10533360;28;20234;-79
2021/11/28 21:17:48;;;;;;;16.87;15.37;;;5.20;99.90;;;;;;10516977;28;20294;-79
2021/11/28 21:22:53;;;;;;;16.03;14.63;;;5.20;99.90;;;;;;10517331;28;20310;-80
2021/11/28 21:27:55;;;;;;;17.17;15.67;;;5.10;99.90;;;;;;10529805;28;20200;-79
2021/11/28 21:32:59;;;;;;;16.80;15.50;;;5.10;99.90;;;;;;10531175;28;20263;-79
2021/11/28 21:38:01;;;;;;;17.13;15.53;;;5.10;99.90;;;;;;10514932;28;20250;-80
2021/11/28 21:43:04;;;;;;;15.40;14.20;;;5.10;99.90;;;;;;10511461;28;20234;-82
2021/11/28 21:48:08;;;;;;;16.40;15.10;;;5.10;99.90;;;;;;10539373;28;20247;-80
2021/11/28 21:53:11;;;;;;;16.20;14.87;;;5.10;99.90;;;;;;10519227;28;20252;-79
2021/11/28 21:58:15;;;;;;;16.97;15.43;;;5.20;99.90;;;;;;10519985;28;20216;-80
2021/11/28 22:03:19;;;;;;;19.07;17.40;;;5.20;99.90;;;;;;10529462;28;20228;-80
2021/11/28 22:08:21;;;;;;;23.13;18.87;;;5.20;99.90;;;;;;10522384;28;20305;-79
2021/11/28 22:13:23;;;;;;;21.00;18.93;;;5.20;99.90;;;;;;10494617;28;20585;-80
2021/11/28 22:18:27;;;;;;;20.40;18.43;;;5.30;99.90;;;;;;10545106;28;20314;-77
2021/11/28 22:23:29;;;;;;;22.87;20.57;;;5.30;99.90;;;;;;10511084;28;20266;-78
2021/11/28 22:28:31;;;;;;;21.60;19.40;;;5.30;99.90;;;;;;10511936;28;20640;-80
2021/11/28 22:33:35;;;;;;;20.77;18.77;;;5.30;99.90;;;;;;10521319;28;20772;-80
2021/11/28 22:38:37;;;;;;;20.27;18.33;;;5.30;99.90;;;;;;10512991;28;20232;-79
2021/11/28 22:43:40;;;;;;;20.30;18.37;;;5.30;99.90;;;;;;10512762;28;20232;-80
2021/11/28 22:48:43;;;;;;;18.27;16.57;;;5.30;99.90;;;;;;10528775;28;20208;-80
2021/11/28 22:53:45;;;;;;;19.43;17.63;;;5.30;99.90;;;;;;10530074;28;20591;-81
2021/11/28 22:58:48;;;;;;;16.83;15.30;;;5.20;99.90;;;;;;10512470;28;20234;-81
2021/11/28 23:03:53;;;;;;;18.03;16.33;;;5.30;99.90;;;;;;10507376;28;20353;-80
2021/11/28 23:08:55;;;;;;;17.73;16.23;;;5.30;99.90;;;;;;10531367;28;20227;-80
2021/11/28 23:13:59;;;;;;;17.57;15.97;;;5.30;99.90;;;;;;10524068;28;20255;-79
2021/11/28 23:19:05;;;;;;;18.10;16.50;;;5.30;99.90;;;;;;10531728;28;20254;-80
2021/11/28 23:24:07;;;;;;;18.33;16.73;;;5.30;99.90;;;;;;10508155;28;20264;-80
2021/11/28 23:29:12;;;;;;;18.30;16.70;;;5.30;99.90;;;;;;10553330;28;20192;-79
2021/11/28 23:34:15;;;;;;;18.10;16.57;;;5.30;99.90;;;;;;10542255;28;20281;-77
2021/11/28 23:39:17;;;;;;;18.73;16.93;;;5.30;99.90;;;;;;10512837;28;20231;-80
2021/11/28 23:44:20;;;;;;;17.13;15.63;;;5.30;99.90;;;;;;10543846;28;20226;-80
2021/11/28 23:49:24;;;;;;;19.07;17.37;;;5.30;99.90;;;;;;10525815;28;20246;-80
2021/11/28 23:54:26;;;;;;;18.97;17.30;;;5.30;99.90;;;;;;10502134;28;20686;-79
2021/11/28 23:59:28;;;;;;;19.13;17.43;;;5.30;99.90;;;;;;10527255;28;20219;-79
